sensor_id;sensor_type;location;lat;lon;timestamp;P1;durP1;ratioP1;P2;durP2;ratioP2
17145;SDS011;8688;54.444;18.444;2022-07-04T00:01:27;6.25;;;5.20;;
17145;SDS011;8688;54.444;18.444;2022-07-04T00:03:54;5.70;;;5.10;;
17145;SDS011;8688;54.444;18.444;2022-07-04T00:06:21;8.55;;;5.78;;
17145;SDS011;8688;54.444;18.444;2022-07-04T00:08:49;6.95;;;5.53;;
17145;SDS011;8688;54.444;18.444;2022-07-04T00:11:16;7.03;;;5.63;;
17145;SDS011;8688;54.444;18.444;2022-07-04T00:13:45;7.90;;;6.13;;
17145;SDS011;8688;54.444;18.444;2022-07-04T00:16:12;9.60;;;6.75;;
17145;SDS011;8688;54.444;18.444;2022-07-04T00:18:39;8.27;;;6.95;;
17145;SDS011;8688;54.444;18.444;2022-07-04T00:21:07;8.40;;;7.30;;
17145;SDS011;8688;54.444;18.444;2022-07-04T00:23:34;11.00;;;7.13;;
17145;SDS011;8688;54.444;18.444;2022-07-04T00:26:01;12.32;;;8.88;;
17145;SDS011;8688;54.444;18.444;2022-07-04T00:28:29;12.98;;;8.30;;
17145;SDS011;8688;54.444;18.444;2022-07-04T00:30:57;9.48;;;7.72;;
17145;SDS011;8688;54.444;18.444;2022-07-04T00:33:25;9.30;;;7.93;;
17145;SDS011;8688;54.444;18.444;2022-07-04T00:35:52;8.35;;;7.13;;
17145;SDS011;8688;54.444;18.444;2022-07-04T00:38:19;10.85;;;6.55;;
17145;SDS011;8688;54.444;18.444;2022-07-04T01:01:31;5.53;;;4.80;;
17145;SDS011;8688;54.444;18.444;2022-07-04T01:03:59;7.07;;;4.97;;
17145;SDS011;8688;54.444;18.444;2022-07-04T01:06:28;8.55;;;5.40;;
17145;SDS011;8688;54.444;18.444;2022-07-04T01:08:56;15.75;;;7.50;;
17145;SDS011;8688;54.444;18.444;2022-07-04T01:11:24;8.85;;;6.78;;
17145;SDS011;8688;54.444;18.444;2022-07-04T01:13:53;7.78;;;6.70;;
17145;SDS011;8688;54.444;18.444;2022-07-04T01:16:20;12.38;;;7.43;;
17145;SDS011;8688;54.444;18.444;2022-07-04T01:18:49;9.27;;;8.35;;
17145;SDS011;8688;54.444;18.444;2022-07-04T01:21:19;10.13;;;7.90;;
17145;SDS011;8688;54.444;18.444;2022-07-04T01:23:47;8.40;;;7.50;;
17145;SDS011;8688;54.444;18.444;2022-07-04T01:26:14;7.70;;;6.90;;
17145;SDS011;8688;54.444;18.444;2022-07-04T01:28:43;8.30;;;6.43;;
17145;SDS011;8688;54.444;18.444;2022-07-04T01:31:11;7.28;;;6.57;;
17145;SDS011;8688;54.444;18.444;2022-07-04T01:49:20;7.47;;;6.75;;
17145;SDS011;8688;54.444;18.444;2022-07-04T01:51:48;9.02;;;6.78;;
17145;SDS011;8688;54.444;18.444;2022-07-04T01:54:16;8.35;;;6.78;;
17145;SDS011;8688;54.444;18.444;2022-07-04T01:56:44;8.52;;;6.40;;
17145;SDS011;8688;54.444;18.444;2022-07-04T01:59:12;7.40;;;6.65;;
17145;SDS011;8688;54.444;18.444;2022-07-04T02:01:39;8.30;;;6.18;;
17145;SDS011;8688;54.444;18.444;2022-07-04T02:04:06;6.43;;;5.80;;
17145;SDS011;8688;54.444;18.444;2022-07-04T02:06:35;6.95;;;5.90;;
17145;SDS011;8688;54.444;18.444;2022-07-04T02:09:02;7.45;;;6.65;;
17145;SDS011;8688;54.444;18.444;2022-07-04T02:11:42;8.52;;;6.38;;
17145;SDS011;8688;54.444;18.444;2022-07-04T02:14:27;7.78;;;6.63;;
17145;SDS011;8688;54.444;18.444;2022-07-04T02:16:54;12.20;;;7.20;;
17145;SDS011;8688;54.444;18.444;2022-07-04T02:19:22;14.02;;;7.68;;
17145;SDS011;8688;54.444;18.444;2022-07-04T02:21:51;12.95;;;7.28;;
17145;SDS011;8688;54.444;18.444;2022-07-04T02:24:18;10.63;;;7.63;;
17145;SDS011;8688;54.444;18.444;2022-07-04T02:26:46;8.73;;;6.68;;
17145;SDS011;8688;54.444;18.444;2022-07-04T02:29:13;9.30;;;7.88;;
17145;SDS011;8688;54.444;18.444;2022-07-04T02:31:41;15.38;;;7.60;;
17145;SDS011;8688;54.444;18.444;2022-07-04T02:34:08;14.20;;;8.40;;
17145;SDS011;8688;54.444;18.444;2022-07-04T02:36:36;25.58;;;9.13;;
17145;SDS011;8688;54.444;18.444;2022-07-04T02:39:05;14.60;;;7.68;;
17145;SDS011;8688;54.444;18.444;2022-07-04T02:41:32;17.88;;;8.10;;
17145;SDS011;8688;54.444;18.444;2022-07-04T02:44:00;14.50;;;8.75;;
17145;SDS011;8688;54.444;18.444;2022-07-04T02:46:27;12.18;;;8.90;;
17145;SDS011;8688;54.444;18.444;2022-07-04T02:48:57;10.27;;;7.28;;
17145;SDS011;8688;54.444;18.444;2022-07-04T02:51:24;9.23;;;7.38;;
17145;SDS011;8688;54.444;18.444;2022-07-04T02:53:52;9.82;;;7.45;;
17145;SDS011;8688;54.444;18.444;2022-07-04T02:56:21;10.95;;;7.43;;
17145;SDS011;8688;54.444;18.444;2022-07-04T02:58:48;13.27;;;8.05;;
17145;SDS011;8688;54.444;18.444;2022-07-04T03:01:15;20.73;;;8.60;;
17145;SDS011;8688;54.444;18.444;2022-07-04T03:03:44;12.32;;;7.90;;
17145;SDS011;8688;54.444;18.444;2022-07-04T03:06:13;8.60;;;6.80;;
17145;SDS011;8688;54.444;18.444;2022-07-04T03:08:40;10.52;;;7.45;;
17145;SDS011;8688;54.444;18.444;2022-07-04T03:11:07;12.10;;;6.88;;
17145;SDS011;8688;54.444;18.444;2022-07-04T03:13:37;11.88;;;7.60;;
17145;SDS011;8688;54.444;18.444;2022-07-04T03:16:06;10.30;;;8.13;;
17145;SDS011;8688;54.444;18.444;2022-07-04T03:18:33;7.90;;;7.10;;
17145;SDS011;8688;54.444;18.444;2022-07-04T03:21:01;8.82;;;7.93;;
17145;SDS011;8688;54.444;18.444;2022-07-04T03:23:29;10.68;;;8.45;;
17145;SDS011;8688;54.444;18.444;2022-07-04T03:25:57;9.48;;;7.88;;
17145;SDS011;8688;54.444;18.444;2022-07-04T03:28:24;11.40;;;7.50;;
17145;SDS011;8688;54.444;18.444;2022-07-04T03:30:53;16.88;;;8.77;;
17145;SDS011;8688;54.444;18.444;2022-07-04T03:33:20;16.98;;;9.10;;
17145;SDS011;8688;54.444;18.444;2022-07-04T03:35:47;32.75;;;7.20;;
17145;SDS011;8688;54.444;18.444;2022-07-04T03:38:15;9.35;;;7.05;;
17145;SDS011;8688;54.444;18.444;2022-07-04T03:40:42;10.43;;;7.13;;
17145;SDS011;8688;54.444;18.444;2022-07-04T03:43:09;12.18;;;7.60;;
17145;SDS011;8688;54.444;18.444;2022-07-04T03:45:37;10.82;;;7.68;;
17145;SDS011;8688;54.444;18.444;2022-07-04T03:48:05;10.52;;;7.95;;
17145;SDS011;8688;54.444;18.444;2022-07-04T03:50:33;10.77;;;7.30;;
17145;SDS011;8688;54.444;18.444;2022-07-04T03:53:00;10.60;;;7.75;;
17145;SDS011;8688;54.444;18.444;2022-07-04T03:55:27;11.98;;;8.48;;
17145;SDS011;8688;54.444;18.444;2022-07-04T04:13:28;10.63;;;7.40;;
17145;SDS011;8688;54.444;18.444;2022-07-04T04:15:55;7.45;;;6.65;;
17145;SDS011;8688;54.444;18.444;2022-07-04T04:18:23;8.57;;;6.40;;
17145;SDS011;8688;54.444;18.444;2022-07-04T04:20:50;9.07;;;6.90;;
17145;SDS011;8688;54.444;18.444;2022-07-04T04:23:17;8.68;;;6.85;;
17145;SDS011;8688;54.444;18.444;2022-07-04T04:25:46;8.73;;;6.78;;
17145;SDS011;8688;54.444;18.444;2022-07-04T04:28:13;9.27;;;6.55;;
17145;SDS011;8688;54.444;18.444;2022-07-04T04:30:41;8.68;;;5.75;;
17145;SDS011;8688;54.444;18.444;2022-07-04T04:33:09;9.77;;;6.22;;
17145;SDS011;8688;54.444;18.444;2022-07-04T04:35:36;8.18;;;6.15;;
17145;SDS011;8688;54.444;18.444;2022-07-04T04:38:04;7.20;;;5.95;;
17145;SDS011;8688;54.444;18.444;2022-07-04T04:40:31;8.23;;;6.10;;
17145;SDS011;8688;54.444;18.444;2022-07-04T04:42:58;8.00;;;5.75;;
17145;SDS011;8688;54.444;18.444;2022-07-04T04:45:26;8.85;;;5.53;;
17145;SDS011;8688;54.444;18.444;2022-07-04T04:47:54;8.10;;;4.75;;
17145;SDS011;8688;54.444;18.444;2022-07-04T04:50:22;7.53;;;4.90;;
17145;SDS011;8688;54.444;18.444;2022-07-04T04:52:49;7.13;;;4.50;;
17145;SDS011;8688;54.444;18.444;2022-07-04T04:55:16;5.70;;;4.10;;
17145;SDS011;8688;54.444;18.444;2022-07-04T04:57:44;4.15;;;3.53;;
17145;SDS011;8688;54.444;18.444;2022-07-04T05:00:11;4.65;;;3.33;;
17145;SDS011;8688;54.444;18.444;2022-07-04T05:02:39;5.65;;;3.08;;
17145;SDS011;8688;54.444;18.444;2022-07-04T05:05:08;4.82;;;3.10;;
17145;SDS011;8688;54.444;18.444;2022-07-04T05:07:36;5.53;;;2.88;;
17145;SDS011;8688;54.444;18.444;2022-07-04T05:10:03;4.20;;;2.78;;
17145;SDS011;8688;54.444;18.444;2022-07-04T05:12:31;4.18;;;2.92;;
17145;SDS011;8688;54.444;18.444;2022-07-04T05:14:59;4.03;;;3.00;;
17145;SDS011;8688;54.444;18.444;2022-07-04T05:17:26;5.07;;;2.95;;
17145;SDS011;8688;54.444;18.444;2022-07-04T05:19:53;5.20;;;3.42;;
17145;SDS011;8688;54.444;18.444;2022-07-04T05:22:22;3.97;;;3.22;;
17145;SDS011;8688;54.444;18.444;2022-07-04T05:24:49;5.68;;;3.50;;
17145;SDS011;8688;54.444;18.444;2022-07-04T05:27:17;6.50;;;3.05;;
17145;SDS011;8688;54.444;18.444;2022-07-04T05:29:44;4.75;;;3.35;;
17145;SDS011;8688;54.444;18.444;2022-07-04T05:32:11;4.28;;;3.35;;
17145;SDS011;8688;54.444;18.444;2022-07-04T05:34:38;6.82;;;3.25;;
17145;SDS011;8688;54.444;18.444;2022-07-04T05:37:06;5.35;;;3.10;;
17145;SDS011;8688;54.444;18.444;2022-07-04T05:39:34;4.88;;;3.17;;
17145;SDS011;8688;54.444;18.444;2022-07-04T05:42:02;6.13;;;3.30;;
17145;SDS011;8688;54.444;18.444;2022-07-04T05:44:30;7.68;;;3.42;;
17145;SDS011;8688;54.444;18.444;2022-07-04T05:46:57;4.85;;;3.40;;
17145;SDS011;8688;54.444;18.444;2022-07-04T05:49:24;8.38;;;3.55;;
17145;SDS011;8688;54.444;18.444;2022-07-04T05:51:51;5.65;;;3.05;;
17145;SDS011;8688;54.444;18.444;2022-07-04T05:54:19;7.07;;;3.15;;
17145;SDS011;8688;54.444;18.444;2022-07-04T05:56:48;6.38;;;3.45;;
17145;SDS011;8688;54.444;18.444;2022-07-04T05:59:15;5.82;;;2.90;;
17145;SDS011;8688;54.444;18.444;2022-07-04T06:01:42;5.35;;;3.03;;
17145;SDS011;8688;54.444;18.444;2022-07-04T06:04:10;5.20;;;2.65;;
17145;SDS011;8688;54.444;18.444;2022-07-04T06:06:37;5.13;;;3.20;;
17145;SDS011;8688;54.444;18.444;2022-07-04T06:09:05;3.00;;;2.72;;
17145;SDS011;8688;54.444;18.444;2022-07-04T06:11:32;3.88;;;2.55;;
17145;SDS011;8688;54.444;18.444;2022-07-04T06:14:01;3.22;;;2.90;;
17145;SDS011;8688;54.444;18.444;2022-07-04T06:18:58;3.10;;;2.75;;
17145;SDS011;8688;54.444;18.444;2022-07-04T06:21:26;7.40;;;2.60;;
17145;SDS011;8688;54.444;18.444;2022-07-04T06:23:53;4.38;;;2.70;;
17145;SDS011;8688;54.444;18.444;2022-07-04T06:34:07;5.13;;;2.60;;
17145;SDS011;8688;54.444;18.444;2022-07-04T06:36:51;6.80;;;2.65;;
17145;SDS011;8688;54.444;18.444;2022-07-04T06:39:19;5.45;;;2.65;;
17145;SDS011;8688;54.444;18.444;2022-07-04T06:41:46;5.55;;;2.70;;
17145;SDS011;8688;54.444;18.444;2022-07-04T06:44:13;3.85;;;2.42;;
17145;SDS011;8688;54.444;18.444;2022-07-04T06:46:41;5.25;;;2.60;;
17145;SDS011;8688;54.444;18.444;2022-07-04T06:49:10;6.72;;;2.40;;
17145;SDS011;8688;54.444;18.444;2022-07-04T06:51:38;3.45;;;2.20;;
17145;SDS011;8688;54.444;18.444;2022-07-04T06:54:05;2.50;;;2.15;;
17145;SDS011;8688;54.444;18.444;2022-07-04T06:56:32;2.63;;;1.95;;
17145;SDS011;8688;54.444;18.444;2022-07-04T06:59:00;4.00;;;1.85;;
17145;SDS011;8688;54.444;18.444;2022-07-04T07:01:28;2.97;;;1.83;;
17145;SDS011;8688;54.444;18.444;2022-07-04T07:03:55;4.50;;;1.88;;
17145;SDS011;8688;54.444;18.444;2022-07-04T07:06:24;4.07;;;1.70;;
17145;SDS011;8688;54.444;18.444;2022-07-04T07:08:51;3.28;;;1.83;;
17145;SDS011;8688;54.444;18.444;2022-07-04T07:11:19;3.10;;;1.95;;
17145;SDS011;8688;54.444;18.444;2022-07-04T07:13:47;4.40;;;2.00;;
17145;SDS011;8688;54.444;18.444;2022-07-04T07:16:17;4.82;;;2.10;;
17145;SDS011;8688;54.444;18.444;2022-07-04T07:18:44;5.65;;;2.42;;
17145;SDS011;8688;54.444;18.444;2022-07-04T07:21:12;3.85;;;1.85;;
17145;SDS011;8688;54.444;18.444;2022-07-04T07:23:41;2.80;;;1.80;;
17145;SDS011;8688;54.444;18.444;2022-07-04T07:26:08;4.47;;;1.90;;
17145;SDS011;8688;54.444;18.444;2022-07-04T07:28:37;4.93;;;1.80;;
17145;SDS011;8688;54.444;18.444;2022-07-04T07:31:04;2.00;;;1.70;;
17145;SDS011;8688;54.444;18.444;2022-07-04T07:33:32;4.32;;;1.92;;
17145;SDS011;8688;54.444;18.444;2022-07-04T07:35:59;6.00;;;2.13;;
17145;SDS011;8688;54.444;18.444;2022-07-04T07:38:27;10.15;;;2.70;;
17145;SDS011;8688;54.444;18.444;2022-07-04T07:40:55;5.18;;;2.20;;
17145;SDS011;8688;54.444;18.444;2022-07-04T07:43:23;5.22;;;2.03;;
17145;SDS011;8688;54.444;18.444;2022-07-04T07:45:50;3.72;;;1.58;;
17145;SDS011;8688;54.444;18.444;2022-07-04T07:48:17;2.03;;;1.70;;
17145;SDS011;8688;54.444;18.444;2022-07-04T08:06:18;12.75;;;3.92;;
17145;SDS011;8688;54.444;18.444;2022-07-04T08:08:46;10.35;;;3.40;;
17145;SDS011;8688;54.444;18.444;2022-07-04T08:11:13;6.57;;;2.80;;
17145;SDS011;8688;54.444;18.444;2022-07-04T08:13:40;3.20;;;2.50;;
17145;SDS011;8688;54.444;18.444;2022-07-04T08:16:08;3.03;;;2.60;;
17145;SDS011;8688;54.444;18.444;2022-07-04T08:18:36;2.78;;;2.50;;
17145;SDS011;8688;54.444;18.444;2022-07-04T08:21:04;5.30;;;2.55;;
17145;SDS011;8688;54.444;18.444;2022-07-04T08:23:33;4.75;;;2.67;;
17145;SDS011;8688;54.444;18.444;2022-07-04T08:26:01;6.38;;;2.92;;
17145;SDS011;8688;54.444;18.444;2022-07-04T08:28:29;3.95;;;2.60;;
17145;SDS011;8688;54.444;18.444;2022-07-04T08:30:57;3.15;;;2.72;;
17145;SDS011;8688;54.444;18.444;2022-07-04T08:33:25;4.95;;;2.60;;
17145;SDS011;8688;54.444;18.444;2022-07-04T08:35:52;5.20;;;2.88;;
17145;SDS011;8688;54.444;18.444;2022-07-04T08:38:19;3.53;;;2.67;;
17145;SDS011;8688;54.444;18.444;2022-07-04T08:40:48;2.80;;;2.60;;
17145;SDS011;8688;54.444;18.444;2022-07-04T08:43:19;3.75;;;2.72;;
17145;SDS011;8688;54.444;18.444;2022-07-04T08:45:52;5.30;;;2.85;;
17145;SDS011;8688;54.444;18.444;2022-07-04T08:48:21;5.45;;;2.60;;
17145;SDS011;8688;54.444;18.444;2022-07-04T08:50:53;3.88;;;2.53;;
17145;SDS011;8688;54.444;18.444;2022-07-04T08:53:26;4.35;;;2.60;;
17145;SDS011;8688;54.444;18.444;2022-07-04T08:55:57;3.25;;;2.10;;
17145;SDS011;8688;54.444;18.444;2022-07-04T08:58:42;4.63;;;2.63;;
17145;SDS011;8688;54.444;18.444;2022-07-04T09:01:10;9.40;;;2.80;;
17145;SDS011;8688;54.444;18.444;2022-07-04T09:03:40;11.40;;;3.03;;
17145;SDS011;8688;54.444;18.444;2022-07-04T09:06:09;6.70;;;2.22;;
17145;SDS011;8688;54.444;18.444;2022-07-04T09:08:37;4.60;;;1.90;;
17145;SDS011;8688;54.444;18.444;2022-07-04T09:11:07;3.67;;;2.00;;
17145;SDS011;8688;54.444;18.444;2022-07-04T09:13:34;2.58;;;1.50;;
17145;SDS011;8688;54.444;18.444;2022-07-04T09:16:02;2.45;;;1.90;;
17145;SDS011;8688;54.444;18.444;2022-07-04T09:18:30;5.93;;;2.40;;
17145;SDS011;8688;54.444;18.444;2022-07-04T09:20:59;5.18;;;2.33;;
17145;SDS011;8688;54.444;18.444;2022-07-04T09:23:28;3.58;;;2.15;;
17145;SDS011;8688;54.444;18.444;2022-07-04T09:26:09;4.35;;;2.40;;
17145;SDS011;8688;54.444;18.444;2022-07-04T09:28:39;4.60;;;2.08;;
17145;SDS011;8688;54.444;18.444;2022-07-04T09:31:18;6.18;;;2.38;;
17145;SDS011;8688;54.444;18.444;2022-07-04T09:33:47;5.70;;;2.10;;
17145;SDS011;8688;54.444;18.444;2022-07-04T09:36:17;2.47;;;1.92;;
17145;SDS011;8688;54.444;18.444;2022-07-04T09:38:45;4.35;;;2.13;;
17145;SDS011;8688;54.444;18.444;2022-07-04T09:41:29;5.15;;;2.28;;
17145;SDS011;8688;54.444;18.444;2022-07-04T09:46:35;2.75;;;1.90;;
17145;SDS011;8688;54.444;18.444;2022-07-04T09:49:02;3.38;;;1.60;;
17145;SDS011;8688;54.444;18.444;2022-07-04T09:51:36;5.43;;;2.00;;
17145;SDS011;8688;54.444;18.444;2022-07-04T09:54:14;2.58;;;1.95;;
17145;SDS011;8688;54.444;18.444;2022-07-04T09:56:49;6.18;;;2.30;;
17145;SDS011;8688;54.444;18.444;2022-07-04T10:14:51;1.70;;;1.60;;
17145;SDS011;8688;54.444;18.444;2022-07-04T10:17:19;2.42;;;1.75;;
17145;SDS011;8688;54.444;18.444;2022-07-04T10:19:47;3.92;;;1.70;;
17145;SDS011;8688;54.444;18.444;2022-07-04T10:22:17;2.10;;;1.60;;
17145;SDS011;8688;54.444;18.444;2022-07-04T10:24:46;1.60;;;1.50;;
17145;SDS011;8688;54.444;18.444;2022-07-04T10:27:14;1.70;;;1.60;;
17145;SDS011;8688;54.444;18.444;2022-07-04T10:29:41;2.22;;;1.80;;
17145;SDS011;8688;54.444;18.444;2022-07-04T10:32:10;2.83;;;1.90;;
17145;SDS011;8688;54.444;18.444;2022-07-04T10:34:39;5.47;;;1.80;;
17145;SDS011;8688;54.444;18.444;2022-07-04T10:37:07;2.25;;;1.65;;
17145;SDS011;8688;54.444;18.444;2022-07-04T10:39:34;2.40;;;1.70;;
17145;SDS011;8688;54.444;18.444;2022-07-04T10:42:02;1.95;;;1.58;;
17145;SDS011;8688;54.444;18.444;2022-07-04T10:44:31;2.33;;;1.80;;
17145;SDS011;8688;54.444;18.444;2022-07-04T10:47:03;2.90;;;1.80;;
17145;SDS011;8688;54.444;18.444;2022-07-04T10:49:32;3.53;;;1.70;;
17145;SDS011;8688;54.444;18.444;2022-07-04T10:52:09;2.40;;;1.75;;
17145;SDS011;8688;54.444;18.444;2022-07-04T10:54:37;1.88;;;1.67;;
17145;SDS011;8688;54.444;18.444;2022-07-04T10:57:09;2.40;;;1.50;;
17145;SDS011;8688;54.444;18.444;2022-07-04T10:59:38;2.28;;;1.85;;
17145;SDS011;8688;54.444;18.444;2022-07-04T11:04:46;2.08;;;1.80;;
17145;SDS011;8688;54.444;18.444;2022-07-04T11:07:14;1.90;;;1.70;;
17145;SDS011;8688;54.444;18.444;2022-07-04T11:09:43;2.20;;;2.00;;
17145;SDS011;8688;54.444;18.444;2022-07-04T11:12:11;2.10;;;1.90;;
17145;SDS011;8688;54.444;18.444;2022-07-04T11:14:40;1.95;;;1.70;;
17145;SDS011;8688;54.444;18.444;2022-07-04T11:19:47;1.67;;;1.58;;
17145;SDS011;8688;54.444;18.444;2022-07-04T11:22:21;2.13;;;1.65;;
17145;SDS011;8688;54.444;18.444;2022-07-04T11:24:49;3.47;;;2.13;;
17145;SDS011;8688;54.444;18.444;2022-07-04T11:27:16;2.72;;;1.98;;
17145;SDS011;8688;54.444;18.444;2022-07-04T11:29:49;4.40;;;2.50;;
17145;SDS011;8688;54.444;18.444;2022-07-04T11:32:17;3.03;;;2.30;;
17145;SDS011;8688;54.444;18.444;2022-07-04T11:34:44;1.60;;;1.50;;
17145;SDS011;8688;54.444;18.444;2022-07-04T11:37:13;1.63;;;1.50;;
17145;SDS011;8688;54.444;18.444;2022-07-04T11:39:41;3.17;;;1.70;;
17145;SDS011;8688;54.444;18.444;2022-07-04T11:42:08;1.88;;;1.55;;
17145;SDS011;8688;54.444;18.444;2022-07-04T11:44:53;2.45;;;1.50;;
17145;SDS011;8688;54.444;18.444;2022-07-04T11:47:33;2.83;;;1.70;;
17145;SDS011;8688;54.444;18.444;2022-07-04T11:50:04;1.77;;;1.65;;
17145;SDS011;8688;54.444;18.444;2022-07-04T11:52:43;1.88;;;1.48;;
17145;SDS011;8688;54.444;18.444;2022-07-04T11:55:14;2.15;;;1.70;;
17145;SDS011;8688;54.444;18.444;2022-07-04T11:57:42;1.58;;;1.40;;
17145;SDS011;8688;54.444;18.444;2022-07-04T12:00:12;1.92;;;1.70;;
17145;SDS011;8688;54.444;18.444;2022-07-04T12:02:41;4.93;;;1.70;;
17145;SDS011;8688;54.444;18.444;2022-07-04T12:05:11;1.88;;;1.70;;
17145;SDS011;8688;54.444;18.444;2022-07-04T12:07:40;3.60;;;1.75;;
17145;SDS011;8688;54.444;18.444;2022-07-04T12:10:10;2.90;;;1.60;;
17145;SDS011;8688;54.444;18.444;2022-07-04T12:12:51;1.63;;;1.52;;
17145;SDS011;8688;54.444;18.444;2022-07-04T12:15:19;2.53;;;1.80;;
17145;SDS011;8688;54.444;18.444;2022-07-04T12:17:49;2.55;;;1.70;;
17145;SDS011;8688;54.444;18.444;2022-07-04T12:20:18;2.10;;;1.70;;
17145;SDS011;8688;54.444;18.444;2022-07-04T12:22:49;3.05;;;1.70;;
17145;SDS011;8688;54.444;18.444;2022-07-04T12:25:22;2.17;;;1.80;;
17145;SDS011;8688;54.444;18.444;2022-07-04T12:27:56;1.70;;;1.58;;
17145;SDS011;8688;54.444;18.444;2022-07-04T12:30:25;3.05;;;1.80;;
17145;SDS011;8688;54.444;18.444;2022-07-04T12:32:57;1.90;;;1.60;;
17145;SDS011;8688;54.444;18.444;2022-07-04T12:35:41;1.88;;;1.70;;
17145;SDS011;8688;54.444;18.444;2022-07-04T12:38:12;1.75;;;1.55;;
17145;SDS011;8688;54.444;18.444;2022-07-04T12:40:51;1.88;;;1.60;;
17145;SDS011;8688;54.444;18.444;2022-07-04T12:43:20;5.72;;;1.88;;
17145;SDS011;8688;54.444;18.444;2022-07-04T12:45:48;2.97;;;1.70;;
17145;SDS011;8688;54.444;18.444;2022-07-04T12:48:20;2.20;;;1.98;;
17145;SDS011;8688;54.444;18.444;2022-07-04T12:50:52;2.58;;;1.90;;
17145;SDS011;8688;54.444;18.444;2022-07-04T12:53:20;2.10;;;1.90;;
17145;SDS011;8688;54.444;18.444;2022-07-04T12:55:48;2.28;;;1.90;;
17145;SDS011;8688;54.444;18.444;2022-07-04T12:58:16;4.22;;;2.30;;
17145;SDS011;8688;54.444;18.444;2022-07-04T13:00:43;2.30;;;2.10;;
17145;SDS011;8688;54.444;18.444;2022-07-04T13:44:13;31.27;;;5.07;;
17145;SDS011;8688;54.444;18.444;2022-07-04T13:46:41;11.27;;;3.10;;
17145;SDS011;8688;54.444;18.444;2022-07-04T13:49:09;5.97;;;2.70;;
17145;SDS011;8688;54.444;18.444;2022-07-04T13:51:37;3.05;;;2.83;;
17145;SDS011;8688;54.444;18.444;2022-07-04T13:54:05;4.20;;;2.83;;
17145;SDS011;8688;54.444;18.444;2022-07-04T13:56:33;5.07;;;3.15;;
17145;SDS011;8688;54.444;18.444;2022-07-04T13:59:01;4.13;;;2.60;;
17145;SDS011;8688;54.444;18.444;2022-07-04T14:01:30;4.03;;;2.88;;
17145;SDS011;8688;54.444;18.444;2022-07-04T14:03:58;5.18;;;3.25;;
17145;SDS011;8688;54.444;18.444;2022-07-04T14:06:25;3.33;;;3.10;;
17145;SDS011;8688;54.444;18.444;2022-07-04T14:08:53;4.35;;;3.00;;
17145;SDS011;8688;54.444;18.444;2022-07-04T14:11:21;3.53;;;3.17;;
17145;SDS011;8688;54.444;18.444;2022-07-04T14:13:48;5.18;;;3.00;;
17145;SDS011;8688;54.444;18.444;2022-07-04T14:16:15;4.28;;;3.22;;
17145;SDS011;8688;54.444;18.444;2022-07-04T14:18:45;20.95;;;3.42;;
17145;SDS011;8688;54.444;18.444;2022-07-04T14:21:12;10.95;;;3.67;;
17145;SDS011;8688;54.444;18.444;2022-07-04T14:23:40;8.88;;;3.35;;
17145;SDS011;8688;54.444;18.444;2022-07-04T14:26:07;11.40;;;4.63;;
17145;SDS011;8688;54.444;18.444;2022-07-04T14:28:35;6.20;;;3.58;;
17145;SDS011;8688;54.444;18.444;2022-07-04T14:31:03;5.97;;;4.00;;
17145;SDS011;8688;54.444;18.444;2022-07-04T14:33:30;9.40;;;3.90;;
17145;SDS011;8688;54.444;18.444;2022-07-04T14:36:00;5.88;;;3.13;;
17145;SDS011;8688;54.444;18.444;2022-07-04T14:38:28;4.95;;;3.72;;
17145;SDS011;8688;54.444;18.444;2022-07-04T14:40:56;4.20;;;2.63;;
17145;SDS011;8688;54.444;18.444;2022-07-04T14:43:35;24.10;;;3.97;;
17145;SDS011;8688;54.444;18.444;2022-07-04T14:46:04;13.68;;;3.40;;
17145;SDS011;8688;54.444;18.444;2022-07-04T14:48:31;22.15;;;3.72;;
17145;SDS011;8688;54.444;18.444;2022-07-04T14:51:00;14.45;;;3.15;;
17145;SDS011;8688;54.444;18.444;2022-07-04T14:53:28;14.50;;;2.60;;
17145;SDS011;8688;54.444;18.444;2022-07-04T14:55:56;16.60;;;3.40;;
17145;SDS011;8688;54.444;18.444;2022-07-04T14:58:23;5.07;;;2.20;;
17145;SDS011;8688;54.444;18.444;2022-07-04T15:00:50;29.65;;;4.75;;
17145;SDS011;8688;54.444;18.444;2022-07-04T15:03:17;4.97;;;2.20;;
17145;SDS011;8688;54.444;18.444;2022-07-04T15:05:45;3.72;;;1.90;;
17145;SDS011;8688;54.444;18.444;2022-07-04T15:08:16;11.02;;;2.67;;
17145;SDS011;8688;54.444;18.444;2022-07-04T15:10:43;6.35;;;2.10;;
17145;SDS011;8688;54.444;18.444;2022-07-04T15:13:11;7.82;;;2.10;;
17145;SDS011;8688;54.444;18.444;2022-07-04T15:15:39;4.22;;;2.10;;
17145;SDS011;8688;54.444;18.444;2022-07-04T15:18:06;4.07;;;2.00;;
17145;SDS011;8688;54.444;18.444;2022-07-04T15:20:33;6.60;;;1.80;;
17145;SDS011;8688;54.444;18.444;2022-07-04T15:23:19;2.47;;;1.85;;
17145;SDS011;8688;54.444;18.444;2022-07-04T15:26:04;3.45;;;1.80;;
17145;SDS011;8688;54.444;18.444;2022-07-04T15:28:32;3.10;;;1.60;;
17145;SDS011;8688;54.444;18.444;2022-07-04T15:30:59;1.50;;;1.40;;
17145;SDS011;8688;54.444;18.444;2022-07-04T15:33:27;4.05;;;1.73;;
17145;SDS011;8688;54.444;18.444;2022-07-04T15:35:55;3.22;;;1.70;;
17145;SDS011;8688;54.444;18.444;2022-07-04T15:38:24;2.50;;;1.70;;
17145;SDS011;8688;54.444;18.444;2022-07-04T15:40:52;1.40;;;1.30;;
17145;SDS011;8688;54.444;18.444;2022-07-04T15:43:19;3.42;;;1.60;;
17145;SDS011;8688;54.444;18.444;2022-07-04T15:45:46;3.78;;;1.50;;
17145;SDS011;8688;54.444;18.444;2022-07-04T15:48:13;3.47;;;1.67;;
17145;SDS011;8688;54.444;18.444;2022-07-04T15:50:41;2.10;;;1.50;;
17145;SDS011;8688;54.444;18.444;2022-07-04T15:53:08;2.65;;;1.40;;
17145;SDS011;8688;54.444;18.444;2022-07-04T15:55:37;3.50;;;1.30;;
17145;SDS011;8688;54.444;18.444;2022-07-04T15:58:04;2.97;;;1.27;;
17145;SDS011;8688;54.444;18.444;2022-07-04T16:00:32;2.60;;;1.20;;
17145;SDS011;8688;54.444;18.444;2022-07-04T16:02:59;5.20;;;1.20;;
17145;SDS011;8688;54.444;18.444;2022-07-04T16:05:27;3.50;;;1.30;;
17145;SDS011;8688;54.444;18.444;2022-07-04T16:07:54;1.80;;;1.10;;
17145;SDS011;8688;54.444;18.444;2022-07-04T16:10:21;2.22;;;1.10;;
17145;SDS011;8688;54.444;18.444;2022-07-04T16:12:50;1.48;;;1.20;;
17145;SDS011;8688;54.444;18.444;2022-07-04T16:15:17;1.48;;;0.95;;
17145;SDS011;8688;54.444;18.444;2022-07-04T16:17:45;2.88;;;1.38;;
17145;SDS011;8688;54.444;18.444;2022-07-04T16:20:13;1.45;;;0.90;;
17145;SDS011;8688;54.444;18.444;2022-07-04T16:22:40;2.78;;;1.02;;
17145;SDS011;8688;54.444;18.444;2022-07-04T16:25:08;1.27;;;1.10;;
17145;SDS011;8688;54.444;18.444;2022-07-04T16:27:35;3.53;;;1.00;;
17145;SDS011;8688;54.444;18.444;2022-07-04T16:30:05;1.52;;;0.90;;
17145;SDS011;8688;54.444;18.444;2022-07-04T16:32:33;2.38;;;0.98;;
17145;SDS011;8688;54.444;18.444;2022-07-04T16:35:02;1.60;;;1.00;;
17145;SDS011;8688;54.444;18.444;2022-07-04T16:37:30;1.27;;;0.90;;
17145;SDS011;8688;54.444;18.444;2022-07-04T16:39:57;4.72;;;1.08;;
17145;SDS011;8688;54.444;18.444;2022-07-04T16:42:26;2.42;;;1.00;;
17145;SDS011;8688;54.444;18.444;2022-07-04T16:44:53;1.42;;;0.80;;
17145;SDS011;8688;54.444;18.444;2022-07-04T16:47:22;3.85;;;0.93;;
17145;SDS011;8688;54.444;18.444;2022-07-04T16:49:49;1.73;;;1.08;;
17145;SDS011;8688;54.444;18.444;2022-07-04T16:52:16;2.22;;;0.90;;
17145;SDS011;8688;54.444;18.444;2022-07-04T16:54:44;2.92;;;1.10;;
17145;SDS011;8688;54.444;18.444;2022-07-04T16:57:11;4.10;;;1.38;;
17145;SDS011;8688;54.444;18.444;2022-07-04T16:59:38;2.95;;;1.30;;
17145;SDS011;8688;54.444;18.444;2022-07-04T17:02:06;3.20;;;1.23;;
17145;SDS011;8688;54.444;18.444;2022-07-04T17:04:34;2.85;;;1.13;;
17145;SDS011;8688;54.444;18.444;2022-07-04T17:07:02;1.63;;;0.85;;
17145;SDS011;8688;54.444;18.444;2022-07-04T17:09:29;1.88;;;1.00;;
17145;SDS011;8688;54.444;18.444;2022-07-04T17:11:57;1.52;;;1.00;;
17145;SDS011;8688;54.444;18.444;2022-07-04T17:14:25;2.38;;;1.00;;
17145;SDS011;8688;54.444;18.444;2022-07-04T17:16:52;1.98;;;0.80;;